Time;durP1;ratioP1;P1;durP2;ratioP2;P2;SDS_P1;SDS_P2;PMS_P1;PMS_P2;Temp;Humidity;BMP_temperature;BMP_pressure;BME280_temperature;BME280_humidity;BME280_pressure;Samples;Min_cycle;Max_cycle;Signal;HPM_P1;HPM_P2
2022/07/13 00:01:46;;;;;;;13.65;6.57;;;;;;;23.31;55.69;102024.09;5289011;28;21019;-76
2022/07/13 00:04:18;;;;;;;8.35;5.60;;;;;;;23.40;55.25;102033.06;5290162;28;20044;-77
2022/07/13 00:06:49;;;;;;;12.73;5.95;;;;;;;23.35;55.33;102019.31;5290759;28;20032;-76
2022/07/13 00:09:20;;;;;;;10.35;6.68;;;;;;;23.36;55.75;102025.47;5291371;28;20036;-75
2022/07/13 00:11:51;;;;;;;8.23;4.97;;;;;;;23.34;57.50;102020.28;5292282;28;20032;-75
2022/07/13 00:14:23;;;;;;;13.07;6.38;;;;;;;23.32;55.44;102003.53;5290337;28;20028;-75
2022/07/13 00:16:54;;;;;;;9.93;5.50;;;;;;;23.32;55.24;101987.50;5290736;28;20032;-75
2022/07/13 00:19:25;;;;;;;15.80;5.45;;;;;;;23.37;54.87;101995.91;5290930;28;20032;-75
2022/07/13 00:21:57;;;;;;;10.55;5.78;;;;;;;23.33;54.51;101989.19;5290725;28;20421;-75
2022/07/13 00:24:28;;;;;;;9.90;5.10;;;;;;;23.30;54.59;101993.00;5290062;28;20032;-71
2022/07/13 00:26:59;;;;;;;12.93;5.97;;;;;;;23.15;54.97;101986.47;5278905;28;20028;-76
2022/07/13 00:29:31;;;;;;;7.50;4.55;;;;;;;23.43;53.50;101989.16;5288457;28;20032;-76
2022/07/13 00:32:02;;;;;;;7.80;4.90;;;;;;;23.28;53.80;101986.13;5289025;28;20024;-76
2022/07/13 00:34:33;;;;;;;8.43;5.05;;;;;;;23.21;54.99;101991.25;5290303;28;20032;-76
2022/07/13 00:37:05;;;;;;;8.30;4.20;;;;;;;23.19;54.61;101986.03;5291220;28;20032;-76
2022/07/13 00:39:36;;;;;;;11.38;5.05;;;;;;;23.18;53.48;101973.66;5291164;28;20391;-76
2022/07/13 00:42:07;;;;;;;7.65;5.05;;;;;;;23.27;53.29;101971.06;5290531;28;20020;-76
2022/07/13 00:44:39;;;;;;;10.25;4.38;;;;;;;22.98;54.01;101954.22;5290731;28;20038;-75
2022/07/13 00:47:11;;;;;;;7.57;4.53;;;;;;;22.95;53.51;101955.34;5289352;28;20032;-75
2022/07/13 00:49:42;;;;;;;8.38;4.70;;;;;;;23.20;53.01;101942.28;5289543;28;20494;-75
2022/07/13 00:52:14;;;;;;;8.70;5.50;;;;;;;23.12;52.61;101947.53;5289829;28;20040;-76
2022/07/13 00:54:46;;;;;;;6.13;4.45;;;;;;;23.05;52.48;101949.97;5290377;28;20485;-76
2022/07/13 00:57:18;;;;;;;13.15;5.13;;;;;;;23.29;51.57;101953.06;5291287;28;20024;-76
2022/07/13 00:59:50;;;;;;;9.90;4.53;;;;;;;23.17;51.89;101949.75;5290167;28;20032;-75
2022/07/13 01:02:21;;;;;;;6.50;5.30;;;;;;;23.18;51.95;101954.94;5289727;28;20053;-75
2022/07/13 01:04:52;;;;;;;8.15;4.72;;;;;;;23.07;52.48;101944.47;5288916;28;20089;-75
2022/07/13 01:07:24;;;;;;;13.20;5.32;;;;;;;23.13;51.91;101941.19;5290629;28;20051;-75
2022/07/13 01:09:56;;;;;;;9.35;5.65;;;;;;;23.03;52.27;101932.41;5290164;28;20036;-75
2022/07/13 01:12:29;;;;;;;7.18;4.43;;;;;;;22.92;53.39;101941.44;5290662;28;20084;-75
2022/07/13 01:15:01;;;;;;;11.15;4.68;;;;;;;23.14;52.01;101948.25;5289265;28;20059;-74
2022/07/13 01:17:35;;;;;;;6.93;4.47;;;;;;;22.95;53.86;101947.31;5287775;28;20020;-75
2022/07/13 01:20:08;;;;;;;10.32;4.00;;;;;;;23.03;52.02;101932.41;5287655;28;20466;-76
2022/07/13 01:22:45;;;;;;;7.18;4.40;;;;;;;23.04;51.28;101926.06;5290969;28;20020;-75
2022/07/13 01:25:18;;;;;;;7.15;4.80;;;;;;;22.95;50.84;101931.31;5291225;28;20043;-75
2022/07/13 01:27:49;;;;;;;7.47;4.18;;;;;;;23.08;50.98;101927.44;5291074;28;20085;-75
2022/07/13 01:30:21;;;;;;;7.57;3.58;;;;;;;22.92;50.92;101928.94;5291564;28;20028;-75
2022/07/13 01:32:52;;;;;;;8.10;4.78;;;;;;;23.01;50.51;101937.03;5282845;28;20032;-75
2022/07/13 01:35:24;;;;;;;8.27;4.03;;;;;;;22.94;50.92;101931.44;5288696;28;20070;-74
2022/07/13 01:37:55;;;;;;;4.78;4.10;;;;;;;23.00;50.74;101930.88;5277957;28;20043;-75
2022/07/13 01:40:27;;;;;;;7.95;4.13;;;;;;;22.93;51.63;101930.63;5276001;28;20028;-77
2022/07/13 01:42:58;;;;;;;6.30;3.97;;;;;;;22.81;52.53;101923.78;5281547;28;20037;-75
2022/07/13 01:45:30;;;;;;;8.13;3.95;;;;;;;22.98;51.57;101926.66;5286606;28;20084;-75
2022/07/13 01:48:01;;;;;;;5.80;3.53;;;;;;;22.98;50.87;101932.00;5281117;28;20028;-75
2022/07/13 01:50:32;;;;;;;6.22;3.60;;;;;;;23.00;51.13;101927.34;5294746;28;20390;-75
2022/07/13 01:53:03;;;;;;;5.47;3.35;;;;;;;22.94;51.93;101926.97;5293561;28;20039;-76
2022/07/13 01:55:35;;;;;;;5.18;2.53;;;;;;;22.80;52.55;101924.75;5289631;28;20072;-75
2022/07/13 01:58:06;;;;;;;6.30;3.00;;;;;;;22.75;54.55;101929.69;5292512;28;20028;-76
2022/07/13 02:00:38;;;;;;;9.55;3.20;;;;;;;22.69;54.84;101931.16;5287468;28;20028;-76
2022/07/13 02:03:09;;;;;;;6.40;3.25;;;;;;;22.79;52.84;101923.09;5276088;28;20059;-76
2022/07/13 02:05:40;;;;;;;6.05;2.80;;;;;;;22.63;53.54;101924.56;5282434;28;20047;-76
2022/07/13 02:08:12;;;;;;;7.72;2.97;;;;;;;22.60;53.76;101914.16;5293431;28;20024;-76
2022/07/13 02:10:43;;;;;;;7.85;2.65;;;;;;;22.72;53.35;101913.00;5294130;28;20032;-76
2022/07/13 02:13:15;;;;;;;6.63;3.40;;;;;;;22.63;51.73;101913.88;5293564;28;20111;-75
2022/07/13 02:15:46;;;;;;;7.40;3.05;;;;;;;22.62;52.19;101909.50;5309707;28;20531;-75
2022/07/13 02:18:18;;;;;;;7.40;3.22;;;;;;;22.79;51.98;101907.91;5287277;28;20036;-75
2022/07/13 02:20:49;;;;;;;5.78;3.03;;;;;;;22.69;52.28;101897.25;5287335;28;20505;-74
2022/07/13 02:23:21;;;;;;;4.65;2.67;;;;;;;22.48;53.93;101876.94;5282617;28;20119;-75
2022/07/13 02:25:52;;;;;;;6.03;3.15;;;;;;;22.70;52.03;101890.94;5286332;28;20032;-76
2022/07/13 02:28:23;;;;;;;7.35;3.50;;;;;;;22.63;52.05;101889.84;5289255;28;20471;-76
2022/07/13 02:30:54;;;;;;;7.90;3.30;;;;;;;22.70;51.42;101898.13;5292637;28;20032;-76
2022/07/13 02:33:26;;;;;;;6.80;2.92;;;;;;;22.60;52.60;101890.13;5283096;28;20035;-76
2022/07/13 02:35:57;;;;;;;9.05;3.13;;;;;;;22.58;52.70;101884.94;5280999;28;20028;-77
2022/07/13 02:38:28;;;;;;;4.68;3.03;;;;;;;22.71;51.20;101881.09;5286386;28;20031;-76
2022/07/13 02:41:00;;;;;;;5.93;2.72;;;;;;;22.61;51.55;101878.44;5283623;28;20024;-77
2022/07/13 02:43:31;;;;;;;4.45;3.00;;;;;;;22.68;51.78;101884.91;5288319;28;20032;-77
2022/07/13 02:46:03;;;;;;;5.32;3.03;;;;;;;22.69;51.52;101878.56;5281354;28;20127;-77
2022/07/13 02:48:34;;;;;;;6.25;3.17;;;;;;;22.71;51.93;101878.41;5281829;28;20377;-77
2022/07/13 02:51:05;;;;;;;5.30;2.70;;;;;;;22.52;52.87;101861.47;5282162;28;20020;-76
2022/07/13 02:53:37;;;;;;;5.57;2.75;;;;;;;22.65;52.04;101853.19;5291742;28;20023;-77
2022/07/13 02:56:08;;;;;;;5.68;2.58;;;;;;;22.69;52.04;101873.22;5288881;28;20031;-77
2022/07/13 02:58:39;;;;;;;3.50;2.70;;;;;;;22.73;51.76;101884.47;5282496;28;20035;-77
2022/07/13 03:01:11;;;;;;;4.75;2.92;;;;;;;22.64;52.54;101877.34;5290760;28;20056;-77
2022/07/13 03:03:43;;;;;;;9.20;3.17;;;;;;;22.45;52.62;101855.03;5278611;28;20021;-77
2022/07/13 03:06:14;;;;;;;8.40;3.15;;;;;;;22.53;52.87;101871.19;5287661;28;20079;-77
2022/07/13 03:08:46;;;;;;;7.95;3.42;;;;;;;22.50;53.16;101876.78;5270776;28;20047;-76
2022/07/13 03:11:18;;;;;;;11.95;4.03;;;;;;;22.57;52.84;101877.91;5286194;28;20561;-77
2022/07/13 03:13:49;;;;;;;8.65;3.25;;;;;;;22.59;52.40;101877.75;5291286;28;20442;-77
2022/07/13 03:16:20;;;;;;;6.38;2.80;;;;;;;22.62;52.39;101884.66;5282541;28;20036;-77
2022/07/13 03:18:51;;;;;;;8.32;3.33;;;;;;;22.54;52.31;101872.84;5280986;28;20027;-77
2022/07/13 03:21:23;;;;;;;8.25;2.75;;;;;;;22.45;52.74;101852.38;5292236;28;20032;-76
2022/07/13 03:23:57;;;;;;;5.13;2.90;;;;;;;22.60;52.23;101868.78;5290191;28;20034;-76
2022/07/13 03:26:28;;;;;;;;;;;;;;;22.72;51.91;101870.28;5272530;28;20498;-77
2022/07/13 03:29:00;;;;;;;6.07;3.20;;;;;;;22.43;53.13;101862.38;5288958;28;19916;-76
2022/07/13 03:31:31;;;;;;;5.18;3.85;;;;;;;22.46;52.91;101868.22;5289423;28;20024;-76
2022/07/13 03:34:02;;;;;;;7.70;3.20;;;;;;;22.41;53.03;101857.16;5291728;28;20085;-76
2022/07/13 03:36:34;;;;;;;5.90;2.75;;;;;;;22.47;52.86;101861.06;5292701;28;20478;-76
2022/07/13 03:39:06;;;;;;;4.32;2.88;;;;;;;22.41;52.94;101857.16;5291409;28;20118;-76
2022/07/13 03:41:37;;;;;;;5.63;3.53;;;;;;;22.41;52.78;101857.16;5292077;28;20783;-76
2022/07/13 03:44:08;;;;;;;3.47;2.60;;;;;;;22.37;53.55;101858.47;5291290;28;20106;-76
2022/07/13 03:46:40;;;;;;;4.03;2.85;;;;;;;22.45;53.05;101860.38;5290372;28;20031;-76
2022/07/13 03:49:12;;;;;;;4.88;2.90;;;;;;;22.36;53.16;101854.94;5290357;28;20028;-75
2022/07/13 03:51:46;;;;;;;8.10;3.20;;;;;;;22.33;53.19;101851.72;5290494;28;20043;-76
2022/07/13 03:54:17;;;;;;;;;;;;;;;22.51;52.46;101862.47;5291575;28;20063;-76
2022/07/13 03:56:48;;;;;;;6.25;3.50;;;;;;;22.33;52.90;101865.91;5291390;28;19962;-76
2022/07/13 03:59:19;;;;;;;5.63;3.13;;;;;;;22.34;52.89;101853.41;5282240;28;20024;-76
2022/07/13 04:01:51;;;;;;;3.55;2.63;;;;;;;22.39;52.98;101861.81;5283095;28;20105;-76
2022/07/13 04:04:22;;;;;;;4.30;2.73;;;;;;;22.33;53.56;101854.38;5291069;28;20038;-77
2022/07/13 04:06:53;;;;;;;4.28;2.95;;;;;;;22.26;53.25;101853.28;5290637;28;20077;-76
2022/07/13 04:09:25;;;;;;;8.40;3.00;;;;;;;22.27;53.22;101850.50;5290130;28;20051;-76
2022/07/13 04:11:56;;;;;;;3.70;2.75;;;;;;;22.04;55.18;101856.16;5274468;28;20074;-76
2022/07/13 04:14:28;;;;;;;6.53;3.28;;;;;;;22.20;53.09;101839.53;5289585;28;20043;-77
2022/07/13 04:16:59;;;;;;;5.68;2.90;;;;;;;22.31;53.23;101861.69;5288660;28;20032;-77
2022/07/13 04:19:30;;;;;;;5.40;3.05;;;;;;;22.28;53.60;101853.97;5280731;28;20064;-77
2022/07/13 04:22:02;;;;;;;5.65;3.10;;;;;;;22.27;53.71;101847.81;5284081;28;20055;-77
2022/07/13 04:24:33;;;;;;;5.85;2.90;;;;;;;22.24;54.10;101851.59;5289539;28;20028;-77
2022/07/13 04:27:04;;;;;;;6.05;3.58;;;;;;;22.28;53.40;101846.81;5290847;28;20028;-77
2022/07/13 04:29:36;;;;;;;5.47;3.25;;;;;;;22.19;53.42;101840.53;5290912;28;20038;-77
2022/07/13 04:32:07;;;;;;;7.20;3.38;;;;;;;22.21;53.49;101830.56;5290259;28;20101;-76
2022/07/13 04:34:38;;;;;;;6.95;3.33;;;;;;;22.20;53.48;101822.72;5290570;28;20487;-76
2022/07/13 04:37:10;;;;;;;7.13;3.03;;;;;;;22.21;53.94;101829.72;5291698;28;20566;-76
2022/07/13 04:39:41;;;;;;;8.35;3.45;;;;;;;22.19;53.94;101832.53;5290651;28;20032;-75
2022/07/13 04:42:13;;;;;;;8.25;2.90;;;;;;;22.28;54.00;101837.97;5288984;28;20551;-76
2022/07/13 04:44:44;;;;;;;4.90;3.08;;;;;;;22.16;54.54;101824.81;5290061;28;20482;-76
2022/07/13 04:47:15;;;;;;;5.50;2.95;;;;;;;22.28;54.08;101836.16;5288065;28;20418;-75
2022/07/13 04:49:46;;;;;;;6.68;3.17;;;;;;;22.22;54.57;101829.56;5275144;28;20032;-76
2022/07/13 04:52:18;;;;;;;6.45;2.92;;;;;;;22.30;54.81;101839.53;5291205;28;20050;-76
2022/07/13 04:54:49;;;;;;;8.13;3.05;;;;;;;22.32;54.58;101836.72;5286841;28;20078;-75
2022/07/13 04:57:20;;;;;;;7.13;3.38;;;;;;;22.31;53.73;101837.66;5277583;28;20053;-75
2022/07/13 04:59:51;;;;;;;8.73;3.70;;;;;;;22.29;54.14;101839.66;5290413;28;20068;-75
2022/07/13 05:02:22;;;;;;;7.97;3.22;;;;;;;22.30;54.16;101839.53;5285211;28;20024;-75
2022/07/13 05:04:54;;;;;;;5.68;3.33;;;;;;;22.28;54.01;101829.97;5278098;28;20040;-76
2022/07/13 05:07:25;;;;;;;4.55;3.13;;;;;;;22.21;54.11;101822.56;5270033;28;20168;-76
2022/07/13 05:09:57;;;;;;;5.53;3.38;;;;;;;22.33;54.43;101833.03;5284698;28;20081;-76
2022/07/13 05:12:28;;;;;;;9.50;3.05;;;;;;;22.31;53.84;101830.50;5291264;28;20047;-75
2022/07/13 05:14:59;;;;;;;5.20;2.88;;;;;;;22.34;53.46;101830.22;5291089;28;20058;-75
2022/07/13 05:17:31;;;;;;;9.45;3.50;;;;;;;22.34;53.49;101832.06;5292583;28;20043;-76
2022/07/13 05:20:03;;;;;;;10.63;3.28;;;;;;;22.37;53.92;101831.78;5289284;28;20029;-76
2022/07/13 05:22:34;;;;;;;3.83;2.88;;;;;;;22.44;53.82;101829.34;5293912;28;20110;-76
2022/07/13 05:25:06;;;;;;;6.47;2.90;;;;;;;22.48;53.21;101834.25;5293890;28;20110;-76
2022/07/13 05:27:37;;;;;;;6.18;3.10;;;;;;;22.48;53.38;101822.75;5294064;28;20522;-76
2022/07/13 05:30:08;;;;;;;7.53;3.28;;;;;;;22.45;53.20;101831.03;5276442;28;20040;-76
2022/07/13 05:32:40;;;;;;;5.85;2.50;;;;;;;22.47;52.64;101824.56;5293634;28;20051;-76
2022/07/13 05:35:11;;;;;;;6.25;2.95;;;;;;;22.50;52.27;101822.59;5291850;28;20042;-73
2022/07/13 05:37:42;;;;;;;6.47;3.20;;;;;;;22.50;52.72;101838.59;5287717;28;20070;-77
2022/07/13 05:40:14;;;;;;;6.88;3.00;;;;;;;22.42;52.71;101837.50;5290949;28;20073;-77
2022/07/13 05:42:45;;;;;;;7.03;2.38;;;;;;;22.42;52.87;101834.00;5292937;28;20043;-77
2022/07/13 05:45:16;;;;;;;4.82;3.05;;;;;;;22.47;52.28;101839.72;5290757;28;20270;-77
2022/07/13 05:47:48;;;;;;;9.98;2.67;;;;;;;22.48;52.06;101841.44;5282556;28;20016;-76
2022/07/13 05:50:19;;;;;;;10.63;3.35;;;;;;;22.47;52.87;101845.06;5286288;28;20399;-77
2022/07/13 05:52:50;;;;;;;8.88;3.05;;;;;;;22.52;52.65;101850.81;5286791;28;20024;-77
2022/07/13 05:55:22;;;;;;;11.85;5.03;;;;;;;22.54;52.63;101853.31;5287204;28;20544;-77
2022/07/13 05:57:53;;;;;;;9.63;3.28;;;;;;;22.60;52.39;101855.41;5284502;28;20091;-76
2022/07/13 06:00:24;;;;;;;4.57;2.70;;;;;;;22.63;52.89;101857.81;5285049;28;20024;-76
2022/07/13 06:02:56;;;;;;;12.10;3.22;;;;;;;22.66;52.63;101854.84;5289934;28;20024;-76
2022/07/13 06:05:27;;;;;;;10.93;2.97;;;;;;;22.66;53.17;101852.19;5293991;28;20040;-76
2022/07/13 06:07:58;;;;;;;9.27;3.00;;;;;;;22.66;52.81;101848.66;5293443;28;20024;-76
2022/07/13 06:10:30;;;;;;;6.85;3.05;;;;;;;22.72;52.38;101858.75;5290715;28;20029;-76
2022/07/13 06:13:01;;;;;;;9.05;2.53;;;;;;;22.74;52.37;101850.59;5271805;28;20025;-76
2022/07/13 06:15:32;;;;;;;5.47;2.60;;;;;;;22.80;53.02;101855.34;5272016;28;20074;-76
2022/07/13 06:18:07;;;;;;;8.52;3.03;;;;;;;22.82;52.21;101858.69;5275849;28;20043;-76
2022/07/13 06:20:38;;;;;;;5.72;3.28;;;;;;;22.81;52.34;101870.38;5292799;28;20442;-76
2022/07/13 06:23:09;;;;;;;6.35;2.50;;;;;;;22.83;52.11;101861.22;5291199;28;20077;-76
2022/07/13 06:25:41;;;;;;;5.22;3.08;;;;;;;22.88;52.30;101855.47;5293810;28;20032;-76
2022/07/13 06:28:13;;;;;;;6.30;2.88;;;;;;;22.95;52.95;101861.84;5289772;28;20073;-77
2022/07/13 06:30:45;;;;;;;6.28;2.92;;;;;;;22.99;52.57;101856.25;5289002;28;20039;-74
2022/07/13 06:33:16;;;;;;;5.05;2.80;;;;;;;23.07;52.27;101861.66;5289013;28;20028;-76
2022/07/13 06:35:48;;;;;;;7.70;2.90;;;;;;;23.13;52.21;101849.50;5291017;28;20549;-76
2022/07/13 06:38:19;;;;;;;4.78;2.10;;;;;;;23.16;52.92;101855.41;5290589;28;20055;-76
2022/07/13 06:40:51;;;;;;;8.50;3.03;;;;;;;23.18;52.67;101853.41;5290297;28;20041;-76
2022/07/13 06:43:22;;;;;;;6.03;3.17;;;;;;;23.21;52.33;101850.44;5292266;28;20063;-75
2022/07/13 06:45:53;;;;;;;6.80;2.92;;;;;;;23.28;52.73;101850.69;5289926;28;20032;-76
2022/07/13 06:48:24;;;;;;;5.20;2.92;;;;;;;23.30;52.21;101851.34;5292554;28;20028;-76
2022/07/13 06:50:56;;;;;;;10.45;2.58;;;;;;;23.35;52.67;101852.75;5291704;28;20445;-75
2022/07/13 06:53:27;;;;;;;7.82;3.03;;;;;;;23.39;52.20;101838.91;5287997;28;20034;-76
2022/07/13 06:55:58;;;;;;;6.15;2.65;;;;;;;23.65;52.26;101842.69;5291607;28;20081;-76
2022/07/13 06:58:29;;;;;;;11.27;3.38;;;;;;;23.76;51.92;101831.72;5291158;28;20024;-76
2022/07/13 07:01:01;;;;;;;8.40;3.33;;;;;;;23.83;51.72;101829.25;5291116;28;20724;-76
2022/07/13 07:03:32;;;;;;;9.55;3.50;;;;;;;23.90;51.88;101840.16;5291268;28;20081;-76
2022/07/13 07:06:04;;;;;;;7.80;3.08;;;;;;;23.84;51.86;101835.47;5289298;28;20123;-75
2022/07/13 07:08:35;;;;;;;7.57;2.88;;;;;;;23.78;51.77;101842.25;5290345;28;20026;-75
2022/07/13 07:11:07;;;;;;;8.50;3.67;;;;;;;23.84;52.19;101851.50;5288956;28;20028;-75
2022/07/13 07:13:38;;;;;;;5.13;2.90;;;;;;;23.79;52.73;101846.63;5257279;28;20039;-75
2022/07/13 07:16:09;;;;;;;11.77;3.17;;;;;;;23.81;53.51;101847.28;5264010;28;20106;-75
2022/07/13 07:18:40;;;;;;;17.35;4.05;;;;;;;23.88;52.71;101852.84;5269370;28;20051;-75
2022/07/13 07:21:12;;;;;;;9.32;3.33;;;;;;;23.87;52.54;101846.69;5262555;28;20552;-75
2022/07/13 07:23:43;;;;;;;7.10;3.40;;;;;;;24.34;52.21;101852.69;5258387;28;20475;-75
2022/07/13 07:26:15;;;;;;;8.90;3.50;;;;;;;25.02;50.92;101854.63;5278534;28;20032;-75
2022/07/13 07:28:46;;;;;;;11.60;4.10;;;;;;;24.97;50.48;101847.09;5268560;28;20036;-75
2022/07/13 07:31:18;;;;;;;6.20;3.72;;;;;;;25.03;50.68;101845.56;5259258;28;20129;-75
2022/07/13 07:33:49;;;;;;;8.25;4.10;;;;;;;25.09;50.69;101834.22;5265114;28;20574;-75
2022/07/13 07:36:21;;;;;;;7.97;4.22;;;;;;;25.37;50.90;101841.97;5274911;28;20036;-75
2022/07/13 07:38:53;;;;;;;10.68;4.85;;;;;;;25.55;50.11;101846.31;5274579;28;20039;-75
2022/07/13 07:41:24;;;;;;;7.30;4.15;;;;;;;25.38;49.72;101837.41;5275731;28;20568;-75
2022/07/13 07:43:56;;;;;;;8.60;4.45;;;;;;;25.41;49.54;101842.47;5270206;28;20040;-75
2022/07/13 07:46:28;;;;;;;7.25;4.70;;;;;;;25.31;50.22;101842.59;5266203;28;20032;-75
2022/07/13 07:49:00;;;;;;;14.40;4.97;;;;;;;25.22;51.18;101846.31;5259751;28;20097;-75
2022/07/13 07:51:31;;;;;;;8.82;4.03;;;;;;;25.35;51.21;101845.78;5257215;28;20024;-75
2022/07/13 07:54:02;;;;;;;7.57;4.75;;;;;;;25.49;50.42;101833.56;5273279;28;20120;-76
2022/07/13 07:56:34;;;;;;;10.23;4.20;;;;;;;25.66;50.18;101841.66;5258764;28;20040;-75
2022/07/13 07:59:06;;;;;;;6.72;5.03;;;;;;;25.70;50.17;101829.56;5270548;28;20146;-75
2022/07/13 08:01:37;;;;;;;13.75;5.38;;;;;;;25.80;50.60;101824.84;5270290;28;20467;-75
2022/07/13 08:04:09;;;;;;;15.07;4.85;;;;;;;25.83;50.88;101835.25;5267115;28;20028;-75
2022/07/13 08:06:40;;;;;;;7.95;3.92;;;;;;;26.06;50.44;101837.22;5259239;28;20089;-75
2022/07/13 08:09:11;;;;;;;6.18;4.53;;;;;;;26.49;49.95;101833.41;5268392;28;20077;-75
2022/07/13 08:11:42;;;;;;;8.63;5.32;;;;;;;26.69;49.81;101839.19;5261544;28;20075;-75
2022/07/13 08:14:14;;;;;;;9.77;4.97;;;;;;;26.70;49.69;101845.41;5258015;28;20059;-75
2022/07/13 08:16:45;;;;;;;9.10;4.97;;;;;;;26.77;49.04;101841.00;5258166;28;20599;-75
2022/07/13 08:19:16;;;;;;;12.02;5.57;;;;;;;26.66;50.06;101849.44;5280762;28;20024;-76
2022/07/13 08:21:47;;;;;;;9.30;4.45;;;;;;;26.86;49.76;101849.88;5276525;28;20032;-74
2022/07/13 08:24:19;;;;;;;11.38;5.38;;;;;;;27.32;48.50;101847.41;5276749;28;20068;-75
2022/07/13 08:26:52;;;;;;;12.65;4.70;;;;;;;27.20;48.92;101861.25;5275034;28;20040;-75
2022/07/13 08:29:23;;;;;;;9.35;4.35;;;;;;;27.56;48.92;101858.97;5282391;28;20482;-75
2022/07/13 08:31:54;;;;;;;10.05;4.38;;;;;;;27.49;48.58;101854.31;5283966;28;20225;-75
2022/07/13 08:40:13;;;;;;;8.82;4.78;;;;;;;27.43;48.18;101863.13;5287587;28;20088;-75
2022/07/13 08:42:44;;;;;;;7.53;4.35;;;;;;;27.56;47.71;101856.28;5284412;28;20455;-75
2022/07/13 08:45:15;;;;;;;7.68;4.13;;;;;;;27.66;47.14;101843.41;5284985;28;20522;-75
2022/07/13 08:47:47;;;;;;;7.85;3.50;;;;;;;28.09;46.97;101847.38;5278002;28;20103;-75
2022/07/13 08:50:21;;;;;;;10.15;3.55;;;;;;;28.56;45.88;101860.66;5287437;28;20395;-75
2022/07/13 08:52:53;;;;;;;7.25;3.60;;;;;;;28.23;46.62;101860.03;5272687;28;20441;-75
2022/07/13 08:55:25;;;;;;;7.45;3.30;;;;;;;28.40;46.90;101859.03;5270614;28;20461;-75
2022/07/13 08:57:57;;;;;;;6.50;2.65;;;;;;;28.31;44.76;101844.78;5274875;28;20035;-72
2022/07/13 09:00:28;;;;;;;6.63;2.60;;;;;;;28.57;45.35;101857.81;5281533;28;20035;-73
2022/07/13 09:02:59;;;;;;;6.40;3.53;;;;;;;28.41;45.39;101853.44;5275407;28;20028;-73
2022/07/13 09:05:32;;;;;;;6.10;3.65;;;;;;;28.32;45.84;101860.75;5277522;28;20055;-73
2022/07/13 09:08:06;;;;;;;5.32;2.47;;;;;;;28.20;45.91;101863.09;5279467;28;20039;-73
2022/07/13 09:11:01;;;;;;;5.93;3.00;;;;;;;28.43;45.40;101867.56;5280057;28;20051;-73
2022/07/13 09:13:40;;;;;;;7.55;3.72;;;;;;;28.23;46.16;101870.78;5276448;28;20434;-73
2022/07/13 09:16:21;;;;;;;7.88;3.17;;;;;;;28.47;45.56;101865.31;5277837;28;20039;-73
2022/07/13 09:18:55;;;;;;;8.82;2.88;;;;;;;28.56;45.20;101864.19;5275154;28;20047;-73
2022/07/13 09:21:30;;;;;;;5.07;2.70;;;;;;;28.70;44.51;101859.81;5282722;28;20061;-73
2022/07/13 09:24:03;;;;;;;4.28;2.42;;;;;;;28.92;44.29;101875.19;5284608;28;20024;-72
2022/07/13 09:26:46;;;;;;;4.03;2.55;;;;;;;29.03;43.61;101879.28;5285638;28;20032;-72
2022/07/13 09:29:20;;;;;;;9.10;2.87;;;;;;;28.89;43.69;101864.78;5279948;28;20039;-74
2022/07/13 09:31:55;;;;;;;5.68;2.60;;;;;;;28.91;43.25;101874.34;5278542;28;20109;-74
2022/07/13 09:34:46;;;;;;;6.07;2.90;;;;;;;29.06;43.72;101868.09;5272749;28;20040;-73
2022/07/13 09:37:20;;;;;;;5.13;2.60;;;;;;;28.64;44.56;101879.44;5279032;28;20036;-74
2022/07/13 09:40:09;;;;;;;10.02;2.83;;;;;;;28.52;44.53;101884.47;5281202;28;20482;-72
2022/07/13 09:42:42;;;;;;;4.03;2.63;;;;;;;28.34;44.84;101874.03;5269232;28;20021;-74
2022/07/13 09:48:15;;;;;;;7.85;2.78;;;;;;;28.26;44.64;101856.09;5288365;28;20028;-74
2022/07/13 09:50:52;;;;;;;10.75;2.15;;;;;;;28.31;45.00;101860.94;5291900;28;20061;-72
2022/07/13 09:53:29;;;;;;;7.70;2.58;;;;;;;28.36;42.65;101866.66;5273249;28;20067;-73
2022/07/13 09:56:03;;;;;;;6.53;2.45;;;;;;;28.12;43.91;101882.03;5286618;28;20089;-76
2022/07/13 09:58:37;;;;;;;5.88;2.78;;;;;;;28.26;44.58;101873.09;5269531;28;20373;-72
2022/07/13 10:01:08;;;;;;;6.22;2.60;;;;;;;27.95;45.03;101879.50;5279216;28;20032;-72
2022/07/13 10:03:40;;;;;;;3.70;2.30;;;;;;;28.24;44.75;101882.41;5281316;28;20028;-72
2022/07/13 10:06:12;;;;;;;7.45;3.15;;;;;;;28.25;44.73;101879.53;5286604;28;20040;-72
2022/07/13 10:08:44;;;;;;;5.90;2.90;;;;;;;28.17;44.68;101881.47;5281244;28;20024;-72
2022/07/13 10:11:16;;;;;;;5.18;2.10;;;;;;;28.27;43.54;101882.03;5284142;28;20482;-75
2022/07/13 10:13:47;;;;;;;5.68;2.22;;;;;;;28.34;40.77;101874.03;5279278;28;20067;-74
2022/07/13 10:16:18;;;;;;;3.17;2.05;;;;;;;28.44;40.65;101887.25;5287321;28;20024;-73
2022/07/13 10:18:50;;;;;;;8.27;2.70;;;;;;;28.34;42.06;101882.13;5285097;28;20051;-75
2022/07/13 10:21:42;;;;;;;4.88;2.28;;;;;;;28.44;41.14;101887.25;5282004;28;20460;-75
2022/07/13 10:24:17;;;;;;;6.55;1.77;;;;;;;28.31;42.38;101880.63;5282964;28;20421;-75
2022/07/13 10:26:49;;;;;;;7.60;2.05;;;;;;;28.43;41.54;101886.44;5279448;28;20222;-74
2022/07/13 10:29:21;;;;;;;9.57;2.80;;;;;;;28.30;43.53;101888.88;5282059;28;20028;-74
2022/07/13 10:31:59;;;;;;;15.55;3.13;;;;;;;28.45;41.54;101897.00;5278695;28;20024;-74
2022/07/13 10:34:51;;;;;;;7.75;2.30;;;;;;;28.63;41.81;101897.47;5279001;28;20550;-73
2022/07/13 10:37:24;;;;;;;4.55;2.25;;;;;;;28.38;41.71;101894.25;5281835;28;20027;-73
2022/07/13 10:40:15;;;;;;;5.57;1.85;;;;;;;28.63;41.27;101896.63;5285136;28;20028;-74
2022/07/13 10:42:53;;;;;;;9.23;2.10;;;;;;;28.40;41.76;101897.56;5279593;28;20706;-74
2022/07/13 10:45:34;;;;;;;9.40;1.85;;;;;;;28.56;42.15;101895.69;5283601;28;20036;-73
2022/07/13 10:48:06;;;;;;;3.95;2.13;;;;;;;28.01;42.74;101905.66;5284080;28;20024;-74
2022/07/13 10:50:45;;;;;;;5.72;2.03;;;;;;;28.51;43.64;101904.34;5277982;28;20039;-73
2022/07/13 10:53:17;;;;;;;8.80;2.25;;;;;;;28.90;42.10;101902.34;5281910;28;20027;-73
2022/07/13 10:55:50;;;;;;;5.25;2.20;;;;;;;29.12;39.62;101905.09;5281585;28;20024;-73
2022/07/13 10:58:30;;;;;;;8.05;2.63;;;;;;;29.33;40.46;101903.44;5280858;28;20027;-73
2022/07/13 11:01:24;;;;;;;4.03;2.28;;;;;;;29.38;40.36;101902.88;5282755;28;20061;-73
2022/07/13 11:03:56;;;;;;;;;;;;;;;29.89;40.38;101903.72;5271112;28;20441;-73
2022/07/13 11:06:29;;;;;;;3.83;1.92;;;;;;;29.54;40.30;101912.53;5274713;28;19956;-75
2022/07/13 11:09:09;;;;;;;4.67;2.17;;;;;;;29.38;40.08;101913.66;5276070;28;20151;-73
2022/07/13 11:11:53;;;;;;;6.63;2.05;;;;;;;29.25;40.12;101908.94;5277628;28;20353;-73
2022/07/13 11:14:38;;;;;;;;;;;;;;;29.78;40.33;101915.88;5278961;28;20042;-75
2022/07/13 11:17:23;;;;;;;6.22;2.17;;;;;;;29.25;42.57;101908.94;5278465;28;20014;-73
2022/07/13 11:20:09;;;;;;;14.43;3.13;;;;;;;29.15;42.41;101909.28;5272174;28;20033;-72
2022/07/13 11:25:55;;;;;;;10.85;2.63;;;;;;;29.33;40.63;101906.13;5281085;28;20044;-72
2022/07/13 11:28:36;;;;;;;17.40;3.15;;;;;;;29.78;40.48;101918.56;5282376;28;20144;-72
2022/07/13 11:31:08;;;;;;;6.00;2.25;;;;;;;29.86;38.93;101904.13;5282498;28;20028;-72
2022/07/13 11:33:48;;;;;;;6.88;2.45;;;;;;;30.01;39.36;101904.00;5282399;28;21168;-74
2022/07/13 11:36:23;;;;;;;6.53;2.50;;;;;;;29.94;39.51;101909.34;5286281;28;20069;-75
2022/07/13 11:38:55;;;;;;;2.75;1.50;;;;;;;30.12;38.47;101902.63;5286203;28;20081;-74
2022/07/13 11:41:27;;;;;;;3.80;2.20;;;;;;;30.06;37.78;101907.78;5282860;28;20024;-74
2022/07/13 11:43:58;;;;;;;8.02;1.88;;;;;;;30.06;37.24;101906.94;5272260;28;20046;-75
2022/07/13 11:46:30;;;;;;;6.10;2.30;;;;;;;29.87;38.16;101912.00;5283558;28;20148;-74
2022/07/13 11:49:05;;;;;;;4.95;1.98;;;;;;;29.60;39.65;101895.59;5289300;28;20329;-75
2022/07/13 11:51:37;;;;;;;6.55;2.33;;;;;;;29.54;39.22;101907.13;5279156;28;20389;-74
2022/07/13 11:54:11;;;;;;;4.72;2.00;;;;;;;29.57;40.20;101901.34;5285883;28;20103;-75
2022/07/13 11:56:56;;;;;;;6.45;2.03;;;;;;;29.71;39.31;101905.88;5285991;28;20025;-74
2022/07/13 11:59:33;;;;;;;6.82;2.30;;;;;;;29.65;38.92;101903.13;5277265;28;20029;-74
2022/07/13 12:02:11;;;;;;;4.82;1.80;;;;;;;29.64;39.44;101904.97;5281203;28;20071;-76